Alsace Manor, Pennsylvania
Current Conditions -  °F | °C
As of 5:54 PM on Saturday 25 Oct 2014 (Local Time) from KRDG Reporting Station
Overcast Overcast  
Wind Chill: 66°   Ceiling: 7000
Heat Index: 66°   Visibility: 10mi
Dew Point: 44°   Wind: 9mph
Humidity: 45%   Direction: 230°SW
Pressure: 29.67"   Gusts: NA
Location:  40.4008°N, 75.8851°W
Report Text: KRDG 252154Z AUTO 23008KT 10SM OVC070 19/07 A2967 RMK AO2 SLP052 T01890067
Loading
Personal Weather Stations






























Interactive Weather Map New forecast layout! Learn more

10-Day Weather Forecast

Advertisements
Track Severe Weather on mobile